sensor_id;sensor_type;location;lat;lon;timestamp;P1;durP1;ratioP1;P2;durP2;ratioP2
16669;SDS011;8448;52.034;5.158;2023-02-23T00:01:33;88.27;;;42.60;;
16669;SDS011;8448;52.034;5.158;2023-02-23T00:04:00;101.70;;;45.10;;
16669;SDS011;8448;52.034;5.158;2023-02-23T00:06:30;87.20;;;42.00;;
16669;SDS011;8448;52.034;5.158;2023-02-23T00:08:59;88.37;;;43.20;;
16669;SDS011;8448;52.034;5.158;2023-02-23T00:11:30;91.10;;;42.37;;
16669;SDS011;8448;52.034;5.158;2023-02-23T00:13:57;96.27;;;42.77;;
16669;SDS011;8448;52.034;5.158;2023-02-23T00:16:25;91.73;;;43.50;;
16669;SDS011;8448;52.034;5.158;2023-02-23T00:18:53;85.77;;;40.87;;
16669;SDS011;8448;52.034;5.158;2023-02-23T00:21:26;91.17;;;42.53;;
16669;SDS011;8448;52.034;5.158;2023-02-23T00:23:57;98.47;;;44.73;;
16669;SDS011;8448;52.034;5.158;2023-02-23T00:26:26;99.90;;;45.97;;
16669;SDS011;8448;52.034;5.158;2023-02-23T00:28:57;100.20;;;44.77;;
16669;SDS011;8448;52.034;5.158;2023-02-23T00:31:26;101.80;;;45.40;;
16669;SDS011;8448;52.034;5.158;2023-02-23T00:33:54;94.50;;;43.77;;
16669;SDS011;8448;52.034;5.158;2023-02-23T00:36:25;100.37;;;45.00;;
16669;SDS011;8448;52.034;5.158;2023-02-23T00:38:53;95.50;;;44.60;;
16669;SDS011;8448;52.034;5.158;2023-02-23T00:41:23;100.37;;;44.13;;
16669;SDS011;8448;52.034;5.158;2023-02-23T00:43:52;99.57;;;44.50;;
16669;SDS011;8448;52.034;5.158;2023-02-23T00:46:22;97.23;;;44.67;;
16669;SDS011;8448;52.034;5.158;2023-02-23T00:48:51;98.40;;;44.10;;
16669;SDS011;8448;52.034;5.158;2023-02-23T00:51:20;99.93;;;45.13;;
16669;SDS011;8448;52.034;5.158;2023-02-23T00:53:52;92.50;;;42.43;;
16669;SDS011;8448;52.034;5.158;2023-02-23T00:56:19;92.20;;;42.00;;
16669;SDS011;8448;52.034;5.158;2023-02-23T00:58:48;95.50;;;43.80;;
16669;SDS011;8448;52.034;5.158;2023-02-23T01:01:16;93.33;;;42.63;;
16669;SDS011;8448;52.034;5.158;2023-02-23T01:03:44;94.00;;;42.77;;
16669;SDS011;8448;52.034;5.158;2023-02-23T01:06:12;99.70;;;44.33;;
16669;SDS011;8448;52.034;5.158;2023-02-23T01:08:43;96.53;;;43.60;;
16669;SDS011;8448;52.034;5.158;2023-02-23T01:11:13;102.50;;;44.87;;
16669;SDS011;8448;52.034;5.158;2023-02-23T01:13:45;96.63;;;42.77;;
16669;SDS011;8448;52.034;5.158;2023-02-23T01:16:17;92.37;;;43.40;;
16669;SDS011;8448;52.034;5.158;2023-02-23T01:18:46;94.97;;;43.03;;
16669;SDS011;8448;52.034;5.158;2023-02-23T01:21:15;90.23;;;41.03;;
16669;SDS011;8448;52.034;5.158;2023-02-23T01:23:43;94.73;;;43.07;;
16669;SDS011;8448;52.034;5.158;2023-02-23T01:26:13;89.30;;;41.03;;
16669;SDS011;8448;52.034;5.158;2023-02-23T01:28:43;91.10;;;41.53;;
16669;SDS011;8448;52.034;5.158;2023-02-23T01:31:14;91.43;;;42.13;;
16669;SDS011;8448;52.034;5.158;2023-02-23T01:33:41;89.37;;;41.70;;
16669;SDS011;8448;52.034;5.158;2023-02-23T01:36:10;99.40;;;44.97;;
16669;SDS011;8448;52.034;5.158;2023-02-23T01:38:38;85.87;;;40.57;;
16669;SDS011;8448;52.034;5.158;2023-02-23T01:41:06;95.87;;;43.97;;
16669;SDS011;8448;52.034;5.158;2023-02-23T01:43:33;96.70;;;42.83;;
16669;SDS011;8448;52.034;5.158;2023-02-23T01:46:01;87.17;;;41.17;;
16669;SDS011;8448;52.034;5.158;2023-02-23T01:48:31;96.00;;;42.73;;
16669;SDS011;8448;52.034;5.158;2023-02-23T01:51:02;93.97;;;42.93;;
16669;SDS011;8448;52.034;5.158;2023-02-23T01:53:32;96.57;;;43.00;;
16669;SDS011;8448;52.034;5.158;2023-02-23T01:56:04;94.83;;;43.03;;
16669;SDS011;8448;52.034;5.158;2023-02-23T01:58:35;92.63;;;42.50;;
16669;SDS011;8448;52.034;5.158;2023-02-23T02:01:03;98.30;;;44.13;;
16669;SDS011;8448;52.034;5.158;2023-02-23T02:03:33;93.17;;;43.77;;
16669;SDS011;8448;52.034;5.158;2023-02-23T02:06:03;94.77;;;42.67;;
16669;SDS011;8448;52.034;5.158;2023-02-23T02:08:31;94.10;;;43.63;;
16669;SDS011;8448;52.034;5.158;2023-02-23T02:11:07;100.27;;;44.17;;
16669;SDS011;8448;52.034;5.158;2023-02-23T02:13:50;90.97;;;40.87;;
16669;SDS011;8448;52.034;5.158;2023-02-23T02:16:29;91.60;;;41.13;;
16669;SDS011;8448;52.034;5.158;2023-02-23T02:22:28;93.80;;;42.13;;
16669;SDS011;8448;52.034;5.158;2023-02-23T02:25:33;92.23;;;41.70;;
16669;SDS011;8448;52.034;5.158;2023-02-23T02:28:14;93.37;;;42.67;;
16669;SDS011;8448;52.034;5.158;2023-02-23T02:31:09;92.30;;;42.70;;
16669;SDS011;8448;52.034;5.158;2023-02-23T02:36:56;94.80;;;42.73;;
16669;SDS011;8448;52.034;5.158;2023-02-23T02:39:42;98.63;;;43.80;;
16669;SDS011;8448;52.034;5.158;2023-02-23T02:42:19;99.43;;;43.53;;
16669;SDS011;8448;52.034;5.158;2023-02-23T02:44:54;93.20;;;43.47;;
16669;SDS011;8448;52.034;5.158;2023-02-23T02:47:25;102.50;;;43.77;;
16669;SDS011;8448;52.034;5.158;2023-02-23T02:49:58;97.77;;;42.43;;
16669;SDS011;8448;52.034;5.158;2023-02-23T02:52:33;105.63;;;44.13;;
16669;SDS011;8448;52.034;5.158;2023-02-23T02:55:05;95.27;;;43.00;;
16669;SDS011;8448;52.034;5.158;2023-02-23T02:57:37;94.30;;;42.77;;
16669;SDS011;8448;52.034;5.158;2023-02-23T03:00:07;94.40;;;43.23;;
16669;SDS011;8448;52.034;5.158;2023-02-23T03:02:55;93.33;;;41.53;;
16669;SDS011;8448;52.034;5.158;2023-02-23T03:05:44;95.40;;;42.30;;
16669;SDS011;8448;52.034;5.158;2023-02-23T03:08:35;98.07;;;42.07;;
16669;SDS011;8448;52.034;5.158;2023-02-23T03:11:22;96.50;;;42.30;;
16669;SDS011;8448;52.034;5.158;2023-02-23T03:14:14;99.67;;;43.30;;
16669;SDS011;8448;52.034;5.158;2023-02-23T03:17:05;107.13;;;45.03;;
16669;SDS011;8448;52.034;5.158;2023-02-23T03:19:56;98.70;;;42.13;;
16669;SDS011;8448;52.034;5.158;2023-02-23T03:22:46;91.80;;;41.20;;
16669;SDS011;8448;52.034;5.158;2023-02-23T03:25:44;103.50;;;48.35;;
16669;SDS011;8448;52.034;5.158;2023-02-23T03:28:32;102.30;;;43.77;;
16669;SDS011;8448;52.034;5.158;2023-02-23T03:31:20;100.83;;;46.20;;
16669;SDS011;8448;52.034;5.158;2023-02-23T03:34:12;97.70;;;40.90;;
16669;SDS011;8448;52.034;5.158;2023-02-23T03:37:03;90.17;;;40.67;;
16669;SDS011;8448;52.034;5.158;2023-02-23T03:39:54;99.67;;;43.23;;
16669;SDS011;8448;52.034;5.158;2023-02-23T03:42:43;101.32;;;47.55;;
16669;SDS011;8448;52.034;5.158;2023-02-23T03:45:28;95.27;;;41.80;;
16669;SDS011;8448;52.034;5.158;2023-02-23T03:48:14;117.72;;;53.45;;
16669;SDS011;8448;52.034;5.158;2023-02-23T03:51:00;103.67;;;44.33;;
16669;SDS011;8448;52.034;5.158;2023-02-23T03:53:49;107.13;;;43.97;;
16669;SDS011;8448;52.034;5.158;2023-02-23T03:56:37;95.40;;;45.92;;
16669;SDS011;8448;52.034;5.158;2023-02-23T03:59:27;100.83;;;42.97;;
16669;SDS011;8448;52.034;5.158;2023-02-23T04:02:14;103.13;;;42.77;;
16669;SDS011;8448;52.034;5.158;2023-02-23T04:05:01;85.67;;;39.70;;
16669;SDS011;8448;52.034;5.158;2023-02-23T04:07:49;95.07;;;40.53;;
16669;SDS011;8448;52.034;5.158;2023-02-23T04:10:35;93.37;;;40.10;;
16669;SDS011;8448;52.034;5.158;2023-02-23T04:13:24;94.57;;;46.27;;
16669;SDS011;8448;52.034;5.158;2023-02-23T04:15:53;88.80;;;41.20;;
16669;SDS011;8448;52.034;5.158;2023-02-23T04:18:22;87.00;;;38.70;;
16669;SDS011;8448;52.034;5.158;2023-02-23T04:20:51;91.87;;;40.40;;
16669;SDS011;8448;52.034;5.158;2023-02-23T04:23:18;89.13;;;39.77;;
16669;SDS011;8448;52.034;5.158;2023-02-23T04:25:47;91.53;;;40.20;;
16669;SDS011;8448;52.034;5.158;2023-02-23T04:28:15;95.60;;;42.83;;
16669;SDS011;8448;52.034;5.158;2023-02-23T04:30:43;94.07;;;41.53;;
16669;SDS011;8448;52.034;5.158;2023-02-23T04:33:11;88.43;;;39.57;;
16669;SDS011;8448;52.034;5.158;2023-02-23T04:35:39;91.67;;;40.27;;
16669;SDS011;8448;52.034;5.158;2023-02-23T04:38:07;92.90;;;41.27;;
16669;SDS011;8448;52.034;5.158;2023-02-23T04:40:34;88.07;;;39.37;;
16669;SDS011;8448;52.034;5.158;2023-02-23T04:43:02;93.30;;;39.50;;
16669;SDS011;8448;52.034;5.158;2023-02-23T04:45:29;103.00;;;40.70;;
16669;SDS011;8448;52.034;5.158;2023-02-23T04:47:57;95.10;;;41.30;;
16669;SDS011;8448;52.034;5.158;2023-02-23T04:50:25;93.43;;;42.17;;
16669;SDS011;8448;52.034;5.158;2023-02-23T04:52:53;92.20;;;39.20;;
16669;SDS011;8448;52.034;5.158;2023-02-23T04:55:21;96.35;;;42.95;;
16669;SDS011;8448;52.034;5.158;2023-02-23T04:57:50;98.77;;;42.77;;
16669;SDS011;8448;52.034;5.158;2023-02-23T05:00:18;113.95;;;52.50;;
16669;SDS011;8448;52.034;5.158;2023-02-23T05:02:45;101.50;;;43.27;;
16669;SDS011;8448;52.034;5.158;2023-02-23T05:05:13;101.47;;;41.57;;
16669;SDS011;8448;52.034;5.158;2023-02-23T05:07:44;94.17;;;39.33;;
16669;SDS011;8448;52.034;5.158;2023-02-23T05:10:11;89.77;;;38.60;;
16669;SDS011;8448;52.034;5.158;2023-02-23T05:12:38;95.83;;;39.83;;
16669;SDS011;8448;52.034;5.158;2023-02-23T05:15:06;92.33;;;39.93;;
16669;SDS011;8448;52.034;5.158;2023-02-23T05:17:36;91.33;;;39.90;;
16669;SDS011;8448;52.034;5.158;2023-02-23T05:20:05;87.20;;;39.10;;
16669;SDS011;8448;52.034;5.158;2023-02-23T05:22:33;85.93;;;37.73;;
16669;SDS011;8448;52.034;5.158;2023-02-23T05:25:02;89.67;;;38.77;;
16669;SDS011;8448;52.034;5.158;2023-02-23T05:27:30;89.03;;;36.97;;
16669;SDS011;8448;52.034;5.158;2023-02-23T05:29:58;81.50;;;36.07;;
16669;SDS011;8448;52.034;5.158;2023-02-23T05:32:26;95.30;;;38.83;;
16669;SDS011;8448;52.034;5.158;2023-02-23T05:34:54;85.60;;;36.20;;
16669;SDS011;8448;52.034;5.158;2023-02-23T05:37:21;82.17;;;37.00;;
16669;SDS011;8448;52.034;5.158;2023-02-23T05:39:49;87.03;;;37.80;;
16669;SDS011;8448;52.034;5.158;2023-02-23T05:42:17;85.77;;;36.70;;
16669;SDS011;8448;52.034;5.158;2023-02-23T05:44:45;82.50;;;35.23;;
16669;SDS011;8448;52.034;5.158;2023-02-23T05:47:12;80.37;;;36.00;;
16669;SDS011;8448;52.034;5.158;2023-02-23T05:49:40;82.40;;;36.10;;
16669;SDS011;8448;52.034;5.158;2023-02-23T05:52:08;86.07;;;36.73;;
16669;SDS011;8448;52.034;5.158;2023-02-23T05:54:35;81.10;;;36.07;;
16669;SDS011;8448;52.034;5.158;2023-02-23T05:57:03;81.67;;;35.10;;
16669;SDS011;8448;52.034;5.158;2023-02-23T05:59:32;88.47;;;37.23;;
16669;SDS011;8448;52.034;5.158;2023-02-23T06:01:59;86.53;;;36.80;;
16669;SDS011;8448;52.034;5.158;2023-02-23T06:04:28;87.57;;;37.50;;
16669;SDS011;8448;52.034;5.158;2023-02-23T06:06:56;83.10;;;36.00;;
16669;SDS011;8448;52.034;5.158;2023-02-23T06:09:23;90.90;;;38.50;;
16669;SDS011;8448;52.034;5.158;2023-02-23T06:11:51;94.70;;;38.93;;
16669;SDS011;8448;52.034;5.158;2023-02-23T06:14:19;101.00;;;46.55;;
16669;SDS011;8448;52.034;5.158;2023-02-23T06:16:51;99.30;;;42.47;;
16669;SDS011;8448;52.034;5.158;2023-02-23T06:19:18;96.10;;;39.93;;
16669;SDS011;8448;52.034;5.158;2023-02-23T06:21:46;88.53;;;37.57;;
16669;SDS011;8448;52.034;5.158;2023-02-23T06:24:13;90.17;;;38.33;;
16669;SDS011;8448;52.034;5.158;2023-02-23T06:26:40;90.07;;;37.23;;
16669;SDS011;8448;52.034;5.158;2023-02-23T06:29:08;91.93;;;36.93;;
16669;SDS011;8448;52.034;5.158;2023-02-23T06:31:36;92.97;;;37.53;;
16669;SDS011;8448;52.034;5.158;2023-02-23T06:34:04;82.93;;;34.20;;
16669;SDS011;8448;52.034;5.158;2023-02-23T06:36:32;79.30;;;33.93;;
16669;SDS011;8448;52.034;5.158;2023-02-23T06:38:59;79.37;;;32.83;;
16669;SDS011;8448;52.034;5.158;2023-02-23T06:41:27;76.73;;;33.90;;
16669;SDS011;8448;52.034;5.158;2023-02-23T06:43:55;94.32;;;43.28;;
16669;SDS011;8448;52.034;5.158;2023-02-23T06:46:22;82.77;;;35.97;;
16669;SDS011;8448;52.034;5.158;2023-02-23T06:48:53;80.43;;;34.30;;
16669;SDS011;8448;52.034;5.158;2023-02-23T06:51:22;78.37;;;34.43;;
16669;SDS011;8448;52.034;5.158;2023-02-23T06:53:49;73.27;;;33.70;;
16669;SDS011;8448;52.034;5.158;2023-02-23T06:56:17;82.07;;;34.97;;
16669;SDS011;8448;52.034;5.158;2023-02-23T06:58:45;82.73;;;34.73;;
16669;SDS011;8448;52.034;5.158;2023-02-23T07:01:12;81.30;;;34.87;;
16669;SDS011;8448;52.034;5.158;2023-02-23T07:03:40;80.73;;;34.27;;
16669;SDS011;8448;52.034;5.158;2023-02-23T07:06:08;87.17;;;35.27;;
16669;SDS011;8448;52.034;5.158;2023-02-23T07:08:36;82.80;;;34.63;;
16669;SDS011;8448;52.034;5.158;2023-02-23T07:11:05;80.43;;;33.93;;
16669;SDS011;8448;52.034;5.158;2023-02-23T07:13:32;84.43;;;34.53;;
16669;SDS011;8448;52.034;5.158;2023-02-23T07:16:00;77.63;;;32.73;;
16669;SDS011;8448;52.034;5.158;2023-02-23T07:18:27;81.53;;;33.90;;
16669;SDS011;8448;52.034;5.158;2023-02-23T07:20:55;78.47;;;33.10;;
16669;SDS011;8448;52.034;5.158;2023-02-23T07:23:22;89.50;;;35.43;;
16669;SDS011;8448;52.034;5.158;2023-02-23T07:25:51;88.23;;;34.93;;
16669;SDS011;8448;52.034;5.158;2023-02-23T07:28:20;80.67;;;34.47;;
16669;SDS011;8448;52.034;5.158;2023-02-23T07:30:48;93.23;;;35.90;;
16669;SDS011;8448;52.034;5.158;2023-02-23T07:33:15;90.17;;;36.20;;
16669;SDS011;8448;52.034;5.158;2023-02-23T07:35:43;92.57;;;36.27;;
16669;SDS011;8448;52.034;5.158;2023-02-23T07:38:10;94.83;;;37.70;;
16669;SDS011;8448;52.034;5.158;2023-02-23T07:40:37;94.77;;;37.37;;
16669;SDS011;8448;52.034;5.158;2023-02-23T07:43:06;91.33;;;35.63;;
16669;SDS011;8448;52.034;5.158;2023-02-23T07:45:33;91.13;;;37.07;;
16669;SDS011;8448;52.034;5.158;2023-02-23T07:48:02;96.47;;;36.33;;
16669;SDS011;8448;52.034;5.158;2023-02-23T07:50:30;92.80;;;36.73;;
16669;SDS011;8448;52.034;5.158;2023-02-23T07:52:57;96.43;;;37.33;;
16669;SDS011;8448;52.034;5.158;2023-02-23T07:55:25;105.57;;;37.17;;
16669;SDS011;8448;52.034;5.158;2023-02-23T07:57:52;92.00;;;35.90;;
16669;SDS011;8448;52.034;5.158;2023-02-23T08:00:21;94.73;;;36.43;;
16669;SDS011;8448;52.034;5.158;2023-02-23T08:02:51;94.83;;;36.03;;
16669;SDS011;8448;52.034;5.158;2023-02-23T08:05:18;92.57;;;36.23;;
16669;SDS011;8448;52.034;5.158;2023-02-23T08:07:46;95.40;;;36.53;;
16669;SDS011;8448;52.034;5.158;2023-02-23T08:10:13;101.70;;;36.87;;
16669;SDS011;8448;52.034;5.158;2023-02-23T08:12:40;97.73;;;36.47;;
16669;SDS011;8448;52.034;5.158;2023-02-23T08:15:08;97.77;;;36.80;;
16669;SDS011;8448;52.034;5.158;2023-02-23T08:17:38;97.63;;;37.20;;
16669;SDS011;8448;52.034;5.158;2023-02-23T08:20:06;99.60;;;37.27;;
16669;SDS011;8448;52.034;5.158;2023-02-23T08:22:34;92.50;;;35.10;;
16669;SDS011;8448;52.034;5.158;2023-02-23T08:25:02;96.43;;;36.60;;
16669;SDS011;8448;52.034;5.158;2023-02-23T08:27:32;95.43;;;36.60;;
16669;SDS011;8448;52.034;5.158;2023-02-23T08:29:59;98.67;;;36.97;;
16669;SDS011;8448;52.034;5.158;2023-02-23T08:32:30;87.23;;;34.73;;
16669;SDS011;8448;52.034;5.158;2023-02-23T08:35:01;89.83;;;35.30;;
16669;SDS011;8448;52.034;5.158;2023-02-23T08:37:29;83.57;;;33.00;;
16669;SDS011;8448;52.034;5.158;2023-02-23T08:39:56;81.90;;;33.80;;
16669;SDS011;8448;52.034;5.158;2023-02-23T08:42:24;77.57;;;31.77;;
16669;SDS011;8448;52.034;5.158;2023-02-23T08:44:52;86.00;;;33.53;;
16669;SDS011;8448;52.034;5.158;2023-02-23T08:47:19;82.10;;;33.53;;
16669;SDS011;8448;52.034;5.158;2023-02-23T08:49:47;86.53;;;34.57;;
16669;SDS011;8448;52.034;5.158;2023-02-23T08:52:16;82.20;;;32.70;;
16669;SDS011;8448;52.034;5.158;2023-02-23T08:54:44;86.47;;;33.63;;
16669;SDS011;8448;52.034;5.158;2023-02-23T08:57:11;75.03;;;33.10;;
16669;SDS011;8448;52.034;5.158;2023-02-23T08:59:39;81.50;;;33.53;;
16669;SDS011;8448;52.034;5.158;2023-02-23T09:02:08;82.30;;;32.93;;
16669;SDS011;8448;52.034;5.158;2023-02-23T09:04:37;84.73;;;33.57;;
16669;SDS011;8448;52.034;5.158;2023-02-23T09:07:07;88.57;;;34.37;;
16669;SDS011;8448;52.034;5.158;2023-02-23T09:09:37;80.23;;;33.37;;
16669;SDS011;8448;52.034;5.158;2023-02-23T09:12:04;81.00;;;33.33;;
16669;SDS011;8448;52.034;5.158;2023-02-23T09:14:31;78.20;;;32.70;;
16669;SDS011;8448;52.034;5.158;2023-02-23T09:17:01;72.60;;;31.37;;
16669;SDS011;8448;52.034;5.158;2023-02-23T09:19:28;78.77;;;33.27;;
16669;SDS011;8448;52.034;5.158;2023-02-23T09:21:56;77.80;;;33.00;;
16669;SDS011;8448;52.034;5.158;2023-02-23T09:24:23;70.07;;;30.97;;
16669;SDS011;8448;52.034;5.158;2023-02-23T09:26:52;79.50;;;32.87;;
16669;SDS011;8448;52.034;5.158;2023-02-23T09:29:19;72.33;;;30.50;;
16669;SDS011;8448;52.034;5.158;2023-02-23T09:31:47;68.20;;;30.07;;
16669;SDS011;8448;52.034;5.158;2023-02-23T09:34:16;66.83;;;29.03;;
16669;SDS011;8448;52.034;5.158;2023-02-23T09:36:44;61.70;;;28.13;;
16669;SDS011;8448;52.034;5.158;2023-02-23T09:39:11;66.27;;;27.80;;
16669;SDS011;8448;52.034;5.158;2023-02-23T09:41:49;64.77;;;28.60;;
16669;SDS011;8448;52.034;5.158;2023-02-23T09:44:31;56.60;;;25.80;;
16669;SDS011;8448;52.034;5.158;2023-02-23T09:47:20;60.27;;;25.80;;
16669;SDS011;8448;52.034;5.158;2023-02-23T09:50:07;50.50;;;24.13;;
16669;SDS011;8448;52.034;5.158;2023-02-23T09:52:43;51.70;;;24.63;;
16669;SDS011;8448;52.034;5.158;2023-02-23T09:55:13;51.50;;;22.27;;
16669;SDS011;8448;52.034;5.158;2023-02-23T09:57:45;48.13;;;22.83;;
16669;SDS011;8448;52.034;5.158;2023-02-23T10:00:15;48.23;;;23.97;;
16669;SDS011;8448;52.034;5.158;2023-02-23T10:02:55;48.80;;;23.90;;
16669;SDS011;8448;52.034;5.158;2023-02-23T10:05:42;48.37;;;23.63;;
16669;SDS011;8448;52.034;5.158;2023-02-23T10:08:21;44.47;;;22.87;;
16669;SDS011;8448;52.034;5.158;2023-02-23T10:10:56;43.90;;;22.53;;
16669;SDS011;8448;52.034;5.158;2023-02-23T10:13:30;46.90;;;23.67;;
16669;SDS011;8448;52.034;5.158;2023-02-23T10:16:06;48.87;;;23.93;;
16669;SDS011;8448;52.034;5.158;2023-02-23T10:18:39;43.40;;;22.23;;
16669;SDS011;8448;52.034;5.158;2023-02-23T10:21:14;45.20;;;23.23;;
16669;SDS011;8448;52.034;5.158;2023-02-23T10:23:44;45.33;;;22.80;;
16669;SDS011;8448;52.034;5.158;2023-02-23T10:26:14;45.47;;;23.73;;
16669;SDS011;8448;52.034;5.158;2023-02-23T10:28:44;45.43;;;22.80;;
16669;SDS011;8448;52.034;5.158;2023-02-23T10:31:19;47.60;;;23.43;;
16669;SDS011;8448;52.034;5.158;2023-02-23T10:33:51;41.87;;;21.87;;
16669;SDS011;8448;52.034;5.158;2023-02-23T10:36:25;43.43;;;22.37;;
16669;SDS011;8448;52.034;5.158;2023-02-23T10:38:56;42.20;;;21.33;;
16669;SDS011;8448;52.034;5.158;2023-02-23T10:41:24;42.43;;;20.13;;
16669;SDS011;8448;52.034;5.158;2023-02-23T10:43:53;38.63;;;20.20;;
16669;SDS011;8448;52.034;5.158;2023-02-23T10:46:21;40.63;;;19.83;;
16669;SDS011;8448;52.034;5.158;2023-02-23T10:48:50;35.33;;;18.00;;
16669;SDS011;8448;52.034;5.158;2023-02-23T10:51:20;34.40;;;18.73;;
16669;SDS011;8448;52.034;5.158;2023-02-23T10:53:51;34.60;;;18.80;;
16669;SDS011;8448;52.034;5.158;2023-02-23T10:56:20;36.27;;;19.40;;
16669;SDS011;8448;52.034;5.158;2023-02-23T10:58:48;37.47;;;19.70;;
16669;SDS011;8448;52.034;5.158;2023-02-23T11:01:30;32.90;;;18.77;;
16669;SDS011;8448;52.034;5.158;2023-02-23T11:04:11;35.87;;;19.53;;
16669;SDS011;8448;52.034;5.158;2023-02-23T11:06:42;32.73;;;19.10;;
16669;SDS011;8448;52.034;5.158;2023-02-23T11:09:17;31.23;;;17.73;;
16669;SDS011;8448;52.034;5.158;2023-02-23T11:11:56;30.67;;;16.67;;
16669;SDS011;8448;52.034;5.158;2023-02-23T11:14:28;26.73;;;16.13;;
16669;SDS011;8448;52.034;5.158;2023-02-23T11:16:58;24.03;;;14.23;;
16669;SDS011;8448;52.034;5.158;2023-02-23T11:19:28;20.23;;;13.47;;
16669;SDS011;8448;52.034;5.158;2023-02-23T11:21:57;21.10;;;12.77;;
16669;SDS011;8448;52.034;5.158;2023-02-23T11:24:26;20.43;;;13.17;;
16669;SDS011;8448;52.034;5.158;2023-02-23T11:26:56;20.00;;;12.97;;
16669;SDS011;8448;52.034;5.158;2023-02-23T11:29:28;21.90;;;12.70;;
16669;SDS011;8448;52.034;5.158;2023-02-23T11:32:01;16.40;;;10.17;;
16669;SDS011;8448;52.034;5.158;2023-02-23T11:34:32;18.07;;;11.20;;
16669;SDS011;8448;52.034;5.158;2023-02-23T11:37:05;18.40;;;10.80;;
16669;SDS011;8448;52.034;5.158;2023-02-23T11:39:37;20.17;;;12.87;;
16669;SDS011;8448;52.034;5.158;2023-02-23T11:42:17;19.80;;;12.83;;
16669;SDS011;8448;52.034;5.158;2023-02-23T11:44:49;21.63;;;13.07;;
16669;SDS011;8448;52.034;5.158;2023-02-23T11:47:20;20.33;;;12.57;;
16669;SDS011;8448;52.034;5.158;2023-02-23T11:49:48;20.00;;;12.33;;
16669;SDS011;8448;52.034;5.158;2023-02-23T11:52:17;20.07;;;12.20;;
16669;SDS011;8448;52.034;5.158;2023-02-23T11:54:53;22.27;;;12.93;;
16669;SDS011;8448;52.034;5.158;2023-02-23T11:57:22;26.17;;;13.33;;
16669;SDS011;8448;52.034;5.158;2023-02-23T11:59:50;21.40;;;12.87;;
16669;SDS011;8448;52.034;5.158;2023-02-23T12:02:21;21.20;;;12.97;;
16669;SDS011;8448;52.034;5.158;2023-02-23T12:04:50;21.57;;;13.30;;
16669;SDS011;8448;52.034;5.158;2023-02-23T12:07:30;25.97;;;13.63;;
16669;SDS011;8448;52.034;5.158;2023-02-23T12:10:04;24.67;;;12.73;;
16669;SDS011;8448;52.034;5.158;2023-02-23T12:12:49;22.63;;;12.87;;
16669;SDS011;8448;52.034;5.158;2023-02-23T12:15:22;24.53;;;13.37;;
16669;SDS011;8448;52.034;5.158;2023-02-23T12:17:56;21.70;;;11.97;;
16669;SDS011;8448;52.034;5.158;2023-02-23T12:20:26;24.20;;;13.00;;
16669;SDS011;8448;52.034;5.158;2023-02-23T12:22:56;23.17;;;12.57;;
16669;SDS011;8448;52.034;5.158;2023-02-23T12:25:26;20.20;;;11.53;;
16669;SDS011;8448;52.034;5.158;2023-02-23T12:27:57;25.47;;;12.83;;
16669;SDS011;8448;52.034;5.158;2023-02-23T12:30:31;21.93;;;12.43;;
16669;SDS011;8448;52.034;5.158;2023-02-23T12:33:06;22.70;;;13.00;;
16669;SDS011;8448;52.034;5.158;2023-02-23T12:35:41;21.53;;;11.67;;
16669;SDS011;8448;52.034;5.158;2023-02-23T12:38:14;20.27;;;11.60;;
16669;SDS011;8448;52.034;5.158;2023-02-23T12:40:51;19.73;;;10.60;;
16669;SDS011;8448;52.034;5.158;2023-02-23T12:43:24;16.10;;;9.60;;
16669;SDS011;8448;52.034;5.158;2023-02-23T12:45:55;16.80;;;9.23;;
16669;SDS011;8448;52.034;5.158;2023-02-23T12:48:32;14.17;;;7.33;;
16669;SDS011;8448;52.034;5.158;2023-02-23T12:51:05;15.33;;;8.20;;
16669;SDS011;8448;52.034;5.158;2023-02-23T12:53:37;14.70;;;8.07;;
16669;SDS011;8448;52.034;5.158;2023-02-23T12:56:11;15.33;;;8.10;;
16669;SDS011;8448;52.034;5.158;2023-02-23T12:58:52;15.27;;;8.73;;
16669;SDS011;8448;52.034;5.158;2023-02-23T13:01:24;14.97;;;8.47;;
16669;SDS011;8448;52.034;5.158;2023-02-23T13:04:01;15.07;;;8.70;;
16669;SDS011;8448;52.034;5.158;2023-02-23T13:06:49;14.33;;;7.97;;
16669;SDS011;8448;52.034;5.158;2023-02-23T13:09:32;15.07;;;7.63;;
16669;SDS011;8448;52.034;5.158;2023-02-23T13:14:56;13.17;;;7.57;;
16669;SDS011;8448;52.034;5.158;2023-02-23T13:17:30;13.13;;;7.27;;
16669;SDS011;8448;52.034;5.158;2023-02-23T13:20:04;11.07;;;6.80;;
16669;SDS011;8448;52.034;5.158;2023-02-23T13:22:39;12.93;;;7.27;;
16669;SDS011;8448;52.034;5.158;2023-02-23T13:25:15;12.03;;;6.80;;
16669;SDS011;8448;52.034;5.158;2023-02-23T13:27:49;14.70;;;7.50;;
16669;SDS011;8448;52.034;5.158;2023-02-23T13:30:18;13.93;;;7.30;;
16669;SDS011;8448;52.034;5.158;2023-02-23T13:32:46;13.87;;;7.10;;
16669;SDS011;8448;52.034;5.158;2023-02-23T13:35:16;13.23;;;7.20;;
16669;SDS011;8448;52.034;5.158;2023-02-23T13:37:47;14.33;;;7.67;;
16669;SDS011;8448;52.034;5.158;2023-02-23T13:40:20;14.77;;;7.50;;
16669;SDS011;8448;52.034;5.158;2023-02-23T13:42:53;15.07;;;8.43;;
16669;SDS011;8448;52.034;5.158;2023-02-23T13:45:37;13.03;;;7.43;;
16669;SDS011;8448;52.034;5.158;2023-02-23T13:48:14;15.47;;;8.00;;
16669;SDS011;8448;52.034;5.158;2023-02-23T13:50:49;14.77;;;8.27;;
16669;SDS011;8448;52.034;5.158;2023-02-23T13:53:36;17.60;;;8.93;;
16669;SDS011;8448;52.034;5.158;2023-02-23T13:56:05;16.10;;;8.17;;
16669;SDS011;8448;52.034;5.158;2023-02-23T13:58:34;15.20;;;8.50;;
16669;SDS011;8448;52.034;5.158;2023-02-23T14:01:03;16.07;;;8.63;;
16669;SDS011;8448;52.034;5.158;2023-02-23T14:03:35;15.37;;;8.33;;
16669;SDS011;8448;52.034;5.158;2023-02-23T14:06:10;15.97;;;7.90;;
16669;SDS011;8448;52.034;5.158;2023-02-23T14:08:42;15.13;;;8.00;;
16669;SDS011;8448;52.034;5.158;2023-02-23T14:11:24;14.20;;;7.67;;
16669;SDS011;8448;52.034;5.158;2023-02-23T14:14:05;15.83;;;7.40;;
16669;SDS011;8448;52.034;5.158;2023-02-23T14:16:35;16.13;;;8.03;;
16669;SDS011;8448;52.034;5.158;2023-02-23T14:19:08;15.57;;;7.73;;
16669;SDS011;8448;52.034;5.158;2023-02-23T14:21:43;15.17;;;8.77;;
16669;SDS011;8448;52.034;5.158;2023-02-23T14:24:18;16.77;;;8.50;;
16669;SDS011;8448;52.034;5.158;2023-02-23T14:32:49;18.63;;;9.43;;
16669;SDS011;8448;52.034;5.158;2023-02-23T14:35:37;19.10;;;9.23;;
16669;SDS011;8448;52.034;5.158;2023-02-23T14:38:14;18.60;;;9.50;;
16669;SDS011;8448;52.034;5.158;2023-02-23T14:40:49;17.53;;;9.53;;
16669;SDS011;8448;52.034;5.158;2023-02-23T14:43:32;18.30;;;9.77;;
16669;SDS011;8448;52.034;5.158;2023-02-23T14:46:07;19.70;;;9.77;;
16669;SDS011;8448;52.034;5.158;2023-02-23T14:48:38;22.43;;;11.03;;
16669;SDS011;8448;52.034;5.158;2023-02-23T14:51:13;19.67;;;10.97;;
16669;SDS011;8448;52.034;5.158;2023-02-23T14:53:47;20.47;;;10.77;;
16669;SDS011;8448;52.034;5.158;2023-02-23T14:56:19;20.47;;;10.73;;
16669;SDS011;8448;52.034;5.158;2023-02-23T14:58:48;19.00;;;10.00;;
16669;SDS011;8448;52.034;5.158;2023-02-23T15:04:03;19.90;;;10.07;;
16669;SDS011;8448;52.034;5.158;2023-02-23T15:06:32;19.53;;;10.40;;
16669;SDS011;8448;52.034;5.158;2023-02-23T15:09:00;19.17;;;11.10;;
16669;SDS011;8448;52.034;5.158;2023-02-23T15:11:28;20.30;;;10.10;;
16669;SDS011;8448;52.034;5.158;2023-02-23T15:13:56;19.70;;;10.83;;
16669;SDS011;8448;52.034;5.158;2023-02-23T15:16:26;20.07;;;10.93;;
16669;SDS011;8448;52.034;5.158;2023-02-23T15:18:54;24.23;;;11.77;;
16669;SDS011;8448;52.034;5.158;2023-02-23T15:21:24;22.07;;;11.97;;
16669;SDS011;8448;52.034;5.158;2023-02-23T15:23:57;23.20;;;12.30;;